Time;durP1;ratioP1;P1;durP2;ratioP2;P2;SDS_P1;SDS_P2;PMS_P1;PMS_P2;Temp;Humidity;BMP_temperature;BMP_pressure;BME280_temperature;BME280_humidity;BME280_pressure;Samples;Min_cycle;Max_cycle;Signal;HPM_P1;HPM_P2
2022/07/23 00:21:44;;;;;;;13.75;5.95;;;15.10;99.90;;;;;;5307773;27;21011;-74
2022/07/23 00:24:15;;;;;;;7.20;5.75;;;14.90;99.90;;;;;;5307560;28;20027;-73
2022/07/23 00:26:46;;;;;;;8.25;5.85;;;14.90;99.90;;;;;;5307403;28;20098;-73
2022/07/23 00:29:16;;;;;;;9.93;7.00;;;14.90;99.90;;;;;;5307399;28;20477;-73
2022/07/23 00:31:47;;;;;;;12.90;7.53;;;14.50;99.90;;;;;;5307284;28;20039;-73
2022/07/23 00:34:18;;;;;;;10.90;6.40;;;14.50;99.90;;;;;;5307324;28;20047;-73
2022/07/23 00:53:20;;;;;;;12.75;7.85;;;14.50;99.90;;;;;;5307769;27;20794;-73
2022/07/23 00:55:51;;;;;;;12.23;7.65;;;14.50;99.90;;;;;;5307655;28;20084;-73
2022/07/23 00:58:22;;;;;;;12.98;7.30;;;14.60;99.90;;;;;;5307678;28;20026;-74
2022/07/23 01:00:53;;;;;;;13.32;8.07;;;14.60;99.90;;;;;;5307406;28;20378;-72
2022/07/23 01:03:24;;;;;;;10.75;7.60;;;14.60;99.90;;;;;;5307266;28;20027;-73
2022/07/23 01:05:54;;;;;;;14.52;8.48;;;14.70;99.90;;;;;;5307520;28;20012;-74
2022/07/23 01:08:25;;;;;;;16.83;8.48;;;14.90;99.90;;;;;;5307438;28;20051;-74
2022/07/23 01:10:56;;;;;;;13.13;8.13;;;14.80;99.90;;;;;;5307374;28;20113;-74
2022/07/23 01:13:27;;;;;;;13.63;8.40;;;14.60;99.90;;;;;;5307030;28;20050;-73
2022/07/23 01:15:58;;;;;;;14.23;8.60;;;14.60;99.90;;;;;;5307248;28;20031;-73
2022/07/23 01:18:28;;;;;;;13.52;8.10;;;14.50;99.90;;;;;;5307144;28;20060;-69
2022/07/23 01:20:59;;;;;;;11.93;8.02;;;14.60;99.90;;;;;;5306902;28;20382;-74
2022/07/23 01:23:30;;;;;;;11.32;7.93;;;14.40;99.90;;;;;;5306765;28;20032;-73
2022/07/23 01:26:01;;;;;;;11.98;8.35;;;14.50;99.90;;;;;;5307059;28;20367;-74
2022/07/23 01:28:32;;;;;;;11.27;7.30;;;14.20;99.90;;;;;;5306883;28;20055;-73
2022/07/23 01:31:03;;;;;;;10.93;7.50;;;14.70;99.90;;;;;;5306970;28;20052;-70
2022/07/23 01:33:34;;;;;;;12.45;7.60;;;14.70;99.90;;;;;;5306813;28;20059;-70
2022/07/23 01:36:05;;;;;;;13.50;7.85;;;14.60;99.90;;;;;;5306797;28;20027;-71
2022/07/23 01:38:36;;;;;;;11.82;7.90;;;14.60;99.90;;;;;;5306697;28;20024;-73
2022/07/23 01:41:07;;;;;;;13.68;8.48;;;14.30;99.90;;;;;;5306534;28;20035;-73
2022/07/23 01:43:38;;;;;;;13.05;7.78;;;14.00;99.90;;;;;;5306582;28;20032;-74
2022/07/23 01:46:09;;;;;;;12.27;7.50;;;14.30;99.90;;;;;;5306609;28;20030;-72
2022/07/23 01:48:40;;;;;;;12.57;7.60;;;14.20;99.90;;;;;;5306508;28;20045;-73
2022/07/23 01:51:10;;;;;;;12.30;8.00;;;14.20;99.90;;;;;;5306294;28;20043;-73
2022/07/23 01:53:41;;;;;;;12.55;7.93;;;14.00;99.90;;;;;;5295352;28;20027;-73
2022/07/23 01:56:14;;;;;;;11.77;7.95;;;14.20;99.90;;;;;;5292243;28;20110;-74
2022/07/23 01:58:45;;;;;;;11.77;7.88;;;14.40;99.90;;;;;;5273937;28;20507;-73
2022/07/23 02:01:17;;;;;;;10.55;7.85;;;14.40;99.90;;;;;;5291982;28;20048;-73
2022/07/23 02:03:47;;;;;;;12.63;8.00;;;14.30;99.90;;;;;;5291994;28;20016;-74
2022/07/23 02:06:18;;;;;;;13.63;8.10;;;13.90;99.90;;;;;;5291981;28;20032;-73
2022/07/23 02:08:49;;;;;;;10.82;7.35;;;14.10;99.90;;;;;;5291972;28;20020;-74
2022/07/23 02:11:20;;;;;;;11.93;8.50;;;14.20;99.90;;;;;;5291889;28;20507;-69
2022/07/23 02:13:51;;;;;;;12.00;7.50;;;14.00;99.90;;;;;;5291813;28;20016;-69
2022/07/23 02:16:21;;;;;;;13.43;7.75;;;14.20;99.90;;;;;;5291755;28;20036;-72
2022/07/23 02:18:52;;;;;;;12.30;8.07;;;14.30;99.90;;;;;;5291741;28;20107;-73
2022/07/23 02:21:23;;;;;;;13.98;8.13;;;14.20;99.90;;;;;;5291522;28;20040;-74
2022/07/23 02:23:54;;;;;;;13.63;8.32;;;14.20;99.90;;;;;;5291527;28;20355;-73
2022/07/23 02:26:24;;;;;;;11.75;7.97;;;14.30;99.90;;;;;;5291647;28;20435;-72
2022/07/23 02:28:55;;;;;;;13.38;7.60;;;13.90;99.90;;;;;;5291656;28;20031;-73
2022/07/23 02:31:26;;;;;;;9.88;7.32;;;13.90;99.90;;;;;;5291872;28;20023;-70
2022/07/23 02:33:57;;;;;;;9.27;6.80;;;13.90;99.90;;;;;;5291745;28;20383;-71
2022/07/23 02:36:28;;;;;;;10.27;7.03;;;14.10;99.90;;;;;;5291958;28;20019;-73
2022/07/23 02:38:59;;;;;;;8.40;6.60;;;13.90;99.90;;;;;;5291974;28;20024;-73
2022/07/23 02:41:30;;;;;;;10.07;7.25;;;13.90;99.90;;;;;;5291539;28;20038;-73
2022/07/23 02:44:01;;;;;;;12.52;7.65;;;13.70;99.90;;;;;;5291388;28;20764;-74
2022/07/23 02:46:32;;;;;;;11.18;7.32;;;13.90;99.90;;;;;;5291310;28;20030;-70
2022/07/23 02:49:04;;;;;;;9.48;6.70;;;13.90;99.90;;;;;;5291197;28;20028;-71
2022/07/23 02:51:35;;;;;;;12.95;7.15;;;14.20;99.90;;;;;;5290842;28;20044;-73
2022/07/23 02:54:06;;;;;;;12.43;7.03;;;13.80;99.90;;;;;;5291085;28;20027;-73
2022/07/23 02:56:36;;;;;;;9.75;5.75;;;13.50;99.90;;;;;;5290960;28;20118;-74
2022/07/23 02:59:08;;;;;;;6.95;5.10;;;13.80;99.90;;;;;;5290501;28;20262;-74
2022/07/23 03:01:38;;;;;;;;;;;13.90;99.90;;;;;;5290151;28;20010;-71
2022/07/23 03:04:10;;;;;;;10.60;5.07;;;14.10;99.90;;;;;;5290057;28;20115;-73
2022/07/23 03:06:41;;;;;;;8.02;5.28;;;14.10;99.90;;;;;;5290863;28;20035;-72
2022/07/23 03:09:11;;;;;;;10.27;5.43;;;14.10;99.90;;;;;;5290869;28;20485;-74
2022/07/23 03:11:42;;;;;;;7.40;4.70;;;13.80;99.90;;;;;;5290767;28;20482;-73
2022/07/23 03:14:13;;;;;;;8.73;5.10;;;13.90;99.90;;;;;;5290789;28;20539;-69
2022/07/23 03:16:44;;;;;;;9.80;5.82;;;13.70;99.90;;;;;;5290800;28;20106;-74
2022/07/23 03:19:15;;;;;;;7.90;5.03;;;13.60;99.90;;;;;;5290652;28;20028;-69
2022/07/23 03:21:46;;;;;;;7.50;4.50;;;13.70;99.90;;;;;;5290446;28;20039;-73
2022/07/23 03:24:19;;;;;;;10.48;4.80;;;14.20;99.90;;;;;;5290394;28;20047;-74
2022/07/23 03:26:50;;;;;;;8.23;4.75;;;14.20;99.90;;;;;;5290566;28;20371;-74
2022/07/23 03:29:21;;;;;;;8.77;5.00;;;14.20;99.90;;;;;;5290389;28;20019;-73
2022/07/23 03:31:52;;;;;;;7.57;4.47;;;14.20;99.90;;;;;;5290433;28;20108;-73
2022/07/23 03:34:23;;;;;;;8.63;4.85;;;14.40;99.90;;;;;;5290369;28;20062;-74
2022/07/23 03:36:53;;;;;;;9.38;4.88;;;14.40;99.90;;;;;;5290227;28;20465;-72
2022/07/23 03:39:24;;;;;;;6.90;4.78;;;14.30;99.90;;;;;;5290117;28;20023;-69
2022/07/23 03:41:56;;;;;;;10.70;5.18;;;14.30;99.90;;;;;;5290134;28;20067;-70
2022/07/23 03:44:26;;;;;;;9.40;5.05;;;14.30;99.90;;;;;;5290183;28;20439;-72
2022/07/23 03:46:57;;;;;;;11.70;5.50;;;14.50;99.90;;;;;;5290062;28;20026;-73
2022/07/23 03:49:28;;;;;;;12.02;5.82;;;14.70;99.90;;;;;;5289986;28;20085;-74
2022/07/23 03:51:59;;;;;;;10.77;5.78;;;14.80;99.90;;;;;;5289737;28;20120;-71
2022/07/23 03:54:30;;;;;;;11.05;6.43;;;14.90;99.90;;;;;;5289873;28;20466;-71
2022/07/23 03:57:01;;;;;;;18.35;7.00;;;14.90;99.90;;;;;;5289891;28;20031;-73
2022/07/23 03:59:32;;;;;;;12.30;7.00;;;15.10;99.90;;;;;;5289826;28;20015;-74
2022/07/23 04:02:02;;;;;;;14.75;7.22;;;15.00;99.90;;;;;;5289632;28;20036;-73
2022/07/23 04:04:33;;;;;;;12.30;6.70;;;15.10;99.90;;;;;;5289715;28;20111;-73
2022/07/23 04:07:04;;;;;;;17.67;7.30;;;15.30;99.90;;;;;;5289660;28;20015;-74
2022/07/23 04:09:35;;;;;;;13.20;7.43;;;15.30;99.90;;;;;;5289701;28;20466;-74
2022/07/23 04:12:07;;;;;;;11.60;6.93;;;15.50;99.90;;;;;;5289387;28;20019;-74
2022/07/23 04:14:37;;;;;;;18.38;6.97;;;15.70;99.90;;;;;;5289631;28;20034;-74
2022/07/23 04:17:08;;;;;;;13.13;7.22;;;16.00;99.90;;;;;;5289117;28;20030;-71
2022/07/23 04:19:41;;;;;;;14.63;7.65;;;16.00;99.90;;;;;;5289621;28;20030;-72
2022/07/23 04:22:12;;;;;;;12.45;7.57;;;15.90;99.90;;;;;;5289285;28;20043;-74
2022/07/23 04:24:43;;;;;;;12.55;7.57;;;16.30;99.90;;;;;;5289430;28;20035;-74
2022/07/23 04:27:14;;;;;;;12.75;7.65;;;16.20;99.90;;;;;;5289512;28;20045;-72
2022/07/23 04:29:45;;;;;;;14.48;7.28;;;16.50;99.90;;;;;;5289318;28;20038;-74
2022/07/23 04:32:15;;;;;;;13.52;7.05;;;16.40;99.90;;;;;;5289494;28;20031;-74
2022/07/23 04:34:46;;;;;;;13.32;7.28;;;16.30;99.90;;;;;;5289288;28;20019;-71
2022/07/23 04:37:17;;;;;;;11.13;7.13;;;16.60;99.90;;;;;;5289329;28;20081;-71
2022/07/23 04:39:48;;;;;;;11.65;7.43;;;16.70;99.90;;;;;;5289278;28;20417;-74
2022/07/23 04:42:19;;;;;;;10.02;6.10;;;16.90;99.90;;;;;;5288969;28;20459;-74
2022/07/23 04:44:50;;;;;;;12.55;6.38;;;17.10;99.90;;;;;;5289248;28;20055;-72
2022/07/23 04:47:20;;;;;;;9.43;5.75;;;17.30;99.90;;;;;;5289149;28;20127;-74
2022/07/23 04:49:51;;;;;;;11.10;5.78;;;17.50;99.90;;;;;;5289207;28;20057;-70
2022/07/23 04:52:23;;;;;;;11.27;5.78;;;17.50;99.90;;;;;;5288626;28;20391;-72
2022/07/23 04:54:53;;;;;;;11.27;5.57;;;17.80;99.90;;;;;;5288918;28;20039;-74
2022/07/23 04:57:24;;;;;;;13.07;5.90;;;18.00;99.90;;;;;;5289068;28;20015;-74
2022/07/23 04:59:55;;;;;;;11.18;6.25;;;18.10;99.90;;;;;;5288957;28;20019;-74
2022/07/23 05:02:26;;;;;;;8.93;5.40;;;18.10;99.90;;;;;;5288815;28;20511;-74
2022/07/23 05:04:57;;;;;;;11.57;6.05;;;18.50;99.90;;;;;;5289137;28;20489;-70
2022/07/23 05:07:28;;;;;;;9.40;5.93;;;18.70;99.90;;;;;;5289082;28;20028;-72
2022/07/23 05:09:59;;;;;;;12.27;6.07;;;18.80;99.90;;;;;;5288871;28;20027;-74
2022/07/23 05:12:29;;;;;;;11.38;6.22;;;18.70;99.90;;;;;;5288779;28;20055;-74
2022/07/23 05:15:00;;;;;;;8.68;5.32;;;19.00;99.90;;;;;;5288867;28;20602;-72
2022/07/23 05:17:31;;;;;;;12.20;4.90;;;19.30;99.90;;;;;;5288948;28;20646;-74
2022/07/23 05:20:03;;;;;;;9.63;5.53;;;19.40;99.90;;;;;;5288901;28;20088;-74
2022/07/23 05:22:33;;;;;;;11.35;5.60;;;19.70;99.90;;;;;;5288569;28;20043;-73
2022/07/23 05:25:05;;;;;;;10.20;5.53;;;20.00;99.90;;;;;;5288760;28;20048;-74
2022/07/23 05:27:36;;;;;;;7.53;4.80;;;20.10;99.90;;;;;;5289354;28;20028;-74
2022/07/23 05:30:07;;;;;;;10.43;4.63;;;20.10;99.90;;;;;;5293026;28;20022;-72
2022/07/23 05:32:38;;;;;;;11.35;4.55;;;20.40;99.90;;;;;;5293026;28;20057;-71
2022/07/23 05:35:09;;;;;;;12.77;4.65;;;20.40;99.90;;;;;;5293032;28;20544;-74
2022/07/23 05:37:40;;;;;;;7.25;4.20;;;20.70;99.90;;;;;;5292988;28;20164;-74
2022/07/23 05:40:11;;;;;;;10.23;4.93;;;20.90;99.90;;;;;;5292968;28;20106;-73
2022/07/23 05:42:42;;;;;;;12.05;5.13;;;21.00;99.90;;;;;;5292559;28;20028;-71
2022/07/23 05:45:13;;;;;;;11.32;5.07;;;20.90;99.90;;;;;;5292704;28;20038;-71
2022/07/23 05:47:47;;;;;;;9.77;4.55;;;20.80;99.90;;;;;;5292616;28;20480;-71
2022/07/23 05:50:18;;;;;;;6.60;4.60;;;21.70;99.90;;;;;;5292491;28;20047;-70
2022/07/23 05:52:49;;;;;;;11.05;3.95;;;21.70;99.90;;;;;;5274053;28;20096;-70
2022/07/23 05:55:20;;;;;;;5.47;3.72;;;21.80;99.90;;;;;;5292456;28;20107;-73
2022/07/23 05:57:51;;;;;;;5.13;3.50;;;22.00;99.90;;;;;;5292323;28;20375;-70
2022/07/23 06:00:22;;;;;;;7.40;3.05;;;21.80;99.90;;;;;;5292240;28;20031;-71
2022/07/23 06:02:53;;;;;;;8.43;3.33;;;22.20;99.90;;;;;;5291963;28;20547;-70
2022/07/23 06:05:24;;;;;;;6.50;3.63;;;22.10;99.90;;;;;;5292118;28;20228;-68
2022/07/23 06:07:55;;;;;;;6.03;3.63;;;22.40;99.90;;;;;;5292235;28;20165;-69
2022/07/23 06:10:26;;;;;;;6.63;3.97;;;22.80;99.90;;;;;;5292079;28;20098;-71
2022/07/23 06:12:57;;;;;;;6.28;3.45;;;23.20;99.90;;;;;;5291971;28;20028;-70
2022/07/23 06:15:28;;;;;;;9.10;3.33;;;23.30;99.90;;;;;;5291914;28;20486;-71
2022/07/23 06:17:58;;;;;;;5.50;3.10;;;23.60;99.90;;;;;;5292105;28;20050;-68
2022/07/23 06:20:29;;;;;;;7.53;3.67;;;23.40;99.90;;;;;;5291817;28;20028;-70
2022/07/23 06:23:00;;;;;;;7.15;3.03;;;23.70;99.90;;;;;;5291711;28;20035;-72
2022/07/23 06:25:31;;;;;;;7.30;3.55;;;24.10;99.90;;;;;;5291908;28;20382;-70
2022/07/23 06:28:02;;;;;;;4.78;2.83;;;24.40;99.90;;;;;;5291844;28;20076;-72
2022/07/23 06:30:33;;;;;;;9.70;3.50;;;24.60;99.90;;;;;;5291646;28;20093;-67
2022/07/23 06:33:04;;;;;;;10.02;3.40;;;24.50;99.90;;;;;;5291557;28;20421;-71
2022/07/23 06:35:35;;;;;;;4.90;3.35;;;24.70;99.90;;;;;;5291567;28;20031;-70
2022/07/23 06:38:06;;;;;;;9.43;2.83;;;24.60;99.90;;;;;;5291687;28;20020;-71
2022/07/23 06:40:36;;;;;;;7.50;3.08;;;24.80;99.90;;;;;;5291316;28;20466;-71
2022/07/23 06:43:07;;;;;;;6.20;3.03;;;24.90;99.90;;;;;;5291213;28;20023;-75
2022/07/23 06:45:38;;;;;;;11.55;2.80;;;25.30;99.90;;;;;;5291292;28;20028;-71
2022/07/23 06:48:09;;;;;;;13.27;2.55;;;25.20;99.90;;;;;;5291356;28;20451;-73
2022/07/23 06:50:40;;;;;;;5.85;2.30;;;25.80;99.90;;;;;;5291114;28;20085;-73
2022/07/23 06:53:10;;;;;;;9.20;2.67;;;26.20;99.90;;;;;;5291052;28;20476;-73
2022/07/23 06:55:41;;;;;;;5.95;2.67;;;26.40;99.90;;;;;;5291256;28;20115;-68
2022/07/23 06:58:13;;;;;;;6.90;2.53;;;26.50;99.90;;;;;;5291093;28;20023;-75
2022/07/23 07:00:44;;;;;;;5.13;2.80;;;26.90;99.90;;;;;;5291008;28;20027;-75
2022/07/23 07:03:17;;;;;;;5.53;2.40;;;26.90;99.90;;;;;;5290836;28;20019;-75
2022/07/23 07:05:49;;;;;;;4.90;2.47;;;27.00;99.90;;;;;;5291040;28;20387;-73
2022/07/23 07:08:20;;;;;;;3.75;2.75;;;27.00;99.90;;;;;;5291067;28;20031;-75
2022/07/23 07:10:51;;;;;;;6.93;2.65;;;27.20;99.90;;;;;;5290803;28;20391;-75
2022/07/23 07:13:22;;;;;;;6.25;2.80;;;27.30;99.90;;;;;;5290691;28;20443;-74
2022/07/23 07:15:52;;;;;;;5.03;2.70;;;27.50;99.90;;;;;;5290704;28;20440;-73
2022/07/23 07:18:23;;;;;;;10.02;2.72;;;27.70;99.90;;;;;;5290665;28;20058;-75
2022/07/23 07:20:54;;;;;;;6.70;2.40;;;27.80;99.90;;;;;;5290505;28;20043;-69
2022/07/23 07:23:25;;;;;;;4.80;3.08;;;28.00;99.90;;;;;;5290334;28;20034;-75
2022/07/23 07:25:56;;;;;;;8.60;2.90;;;27.50;99.90;;;;;;5290508;28;20015;-75
2022/07/23 07:28:26;;;;;;;4.25;3.03;;;28.00;99.90;;;;;;5290490;28;20081;-75
2022/07/23 07:30:57;;;;;;;6.57;3.67;;;28.30;99.90;;;;;;5290380;28;20548;-70
2022/07/23 07:33:28;;;;;;;4.40;3.35;;;28.20;99.90;;;;;;5290360;28;20011;-75
2022/07/23 07:36:00;;;;;;;7.40;3.33;;;28.20;99.90;;;;;;5290323;28;20099;-75
2022/07/23 07:38:31;;;;;;;9.23;3.47;;;28.40;99.90;;;;;;5290196;28;20047;-75
2022/07/23 07:41:02;;;;;;;8.90;3.88;;;28.70;99.90;;;;;;5290287;28;20815;-75
2022/07/23 07:43:33;;;;;;;6.57;3.20;;;28.90;99.90;;;;;;5289944;28;20051;-75
2022/07/23 07:46:04;;;;;;;11.40;3.42;;;28.80;99.90;;;;;;5290100;28;20081;-74
2022/07/23 07:48:38;;;;;;;7.72;3.42;;;28.70;99.90;;;;;;5290065;28;20344;-73
2022/07/23 07:51:08;;;;;;;5.65;3.38;;;29.10;99.90;;;;;;5289283;28;20475;-72
2022/07/23 07:53:39;;;;;;;9.60;3.70;;;29.30;99.90;;;;;;5289890;28;20031;-73
2022/07/23 07:56:10;;;;;;;10.20;3.60;;;28.70;99.90;;;;;;5289777;28;20052;-72
2022/07/23 07:58:41;;;;;;;6.05;3.10;;;29.10;99.90;;;;;;5289804;28;20032;-73
2022/07/23 08:01:12;;;;;;;6.80;2.90;;;29.10;99.90;;;;;;5289752;28;20043;-75
2022/07/23 08:03:42;;;;;;;9.35;2.88;;;29.40;99.90;;;;;;5289775;28;20147;-75
2022/07/23 08:06:13;;;;;;;6.22;2.38;;;29.50;99.90;;;;;;5289691;28;20080;-72
2022/07/23 08:08:44;;;;;;;4.90;2.80;;;29.10;99.90;;;;;;5289654;28;20420;-70
2022/07/23 08:11:16;;;;;;;6.78;2.83;;;29.30;99.90;;;;;;5289746;28;20437;-75
2022/07/23 08:13:46;;;;;;;5.07;2.63;;;29.70;99.90;;;;;;5289551;28;20008;-72
2022/07/23 08:16:17;;;;;;;4.13;2.95;;;30.00;99.90;;;;;;5289440;28;20031;-72
2022/07/23 08:18:48;;;;;;;4.00;2.33;;;30.20;99.90;;;;;;5289581;28;20016;-71
2022/07/23 08:21:19;;;;;;;7.50;2.00;;;29.70;99.90;;;;;;5289228;28;20123;-70
2022/07/23 08:23:50;;;;;;;3.65;2.47;;;29.50;99.90;;;;;;5289532;28;20028;-69
2022/07/23 08:26:21;;;;;;;4.65;1.90;;;30.00;99.90;;;;;;5289482;28;20016;-73
2022/07/23 08:28:51;;;;;;;5.88;2.25;;;30.10;97.90;;;;;;5289850;28;20024;-73
2022/07/23 08:31:23;;;;;;;2.92;2.30;;;29.80;97.40;;;;;;5289656;28;20036;-73
2022/07/23 08:33:54;;;;;;;3.33;2.15;;;30.00;99.90;;;;;;5289662;28;20486;-73
2022/07/23 08:36:27;;;;;;;3.53;2.35;;;29.80;99.90;;;;;;5289423;28;20015;-69
2022/07/23 08:38:59;;;;;;;6.05;2.28;;;30.40;99.90;;;;;;5289304;28;20382;-73
2022/07/23 08:41:30;;;;;;;4.97;2.10;;;30.40;99.90;;;;;;5289204;28;20474;-71
2022/07/23 08:44:01;;;;;;;4.32;2.33;;;30.40;99.90;;;;;;5289329;28;20023;-71
2022/07/23 08:46:32;;;;;;;3.72;2.60;;;30.40;99.90;;;;;;5289347;28;20367;-73
2022/07/23 08:49:04;;;;;;;4.93;2.03;;;30.50;99.90;;;;;;5289397;28;20020;-68
2022/07/23 08:51:35;;;;;;;2.72;2.35;;;30.60;99.90;;;;;;5288837;28;20060;-73
2022/07/23 08:54:06;;;;;;;3.42;2.35;;;30.70;99.90;;;;;;5289194;28;20032;-71
2022/07/23 08:56:37;;;;;;;5.95;2.45;;;31.00;99.90;;;;;;5289171;28;20026;-72
2022/07/23 08:59:08;;;;;;;3.17;2.20;;;31.40;99.90;;;;;;5289268;28;20371;-73
2022/07/23 09:01:39;;;;;;;3.47;2.30;;;31.20;99.90;;;;;;5289064;28;20072;-73
2022/07/23 09:04:10;;;;;;;4.47;2.53;;;31.50;99.90;;;;;;5292307;28;20527;-74
2022/07/23 09:06:42;;;;;;;4.35;2.60;;;31.50;99.90;;;;;;5293537;28;20019;-72
2022/07/23 09:09:20;;;;;;;7.05;2.38;;;31.70;99.90;;;;;;5293317;28;20429;-72
2022/07/23 09:12:03;;;;;;;3.10;2.30;;;31.00;99.90;;;;;;5293357;28;20015;-71
2022/07/23 09:14:42;;;;;;;5.13;2.53;;;31.60;99.90;;;;;;5293196;28;20098;-72
2022/07/23 09:17:15;;;;;;;4.60;2.30;;;31.50;99.90;;;;;;5293272;28;20054;-68
2022/07/23 09:19:46;;;;;;;4.78;2.80;;;31.60;99.50;;;;;;5274942;28;20027;-72
2022/07/23 09:22:28;;;;;;;6.53;2.53;;;32.00;99.90;;;;;;5292896;28;20058;-72
2022/07/23 09:25:25;;;;;;;7.47;2.70;;;32.20;99.90;;;;;;5293020;28;20037;-73
2022/07/23 09:28:02;;;;;;;6.88;2.83;;;31.00;99.90;;;;;;5288308;28;20050;-73
2022/07/23 09:30:36;;;;;;;4.00;2.47;;;31.80;99.90;;;;;;5292887;28;20044;-73
2022/07/23 09:33:11;;;;;;;5.05;2.28;;;32.00;98.80;;;;;;5292793;28;20555;-68
2022/07/23 09:35:48;;;;;;;7.40;2.10;;;32.50;99.90;;;;;;5292717;28;20036;-73
2022/07/23 09:38:21;;;;;;;4.78;2.28;;;32.30;99.20;;;;;;5292657;28;20475;-73
2022/07/23 09:41:12;;;;;;;4.65;2.58;;;31.70;96.00;;;;;;5292513;28;20023;-73
2022/07/23 09:43:44;;;;;;;4.95;2.70;;;31.70;99.90;;;;;;5292598;28;20028;-72
2022/07/23 09:46:26;;;;;;;4.90;2.42;;;32.30;99.90;;;;;;5292530;28;20019;-73
2022/07/23 09:48:57;;;;;;;5.95;2.65;;;31.90;99.90;;;;;;5292702;28;20037;-73
2022/07/23 09:51:36;;;;;;;6.65;2.50;;;31.60;99.90;;;;;;5292127;28;20077;-72
2022/07/23 09:54:26;;;;;;;9.82;2.80;;;32.20;99.90;;;;;;5292345;28;20035;-73
2022/07/23 09:56:59;;;;;;;4.85;2.90;;;31.70;99.90;;;;;;5292532;28;20020;-72
2022/07/23 09:59:34;;;;;;;6.10;2.58;;;31.90;99.90;;;;;;5292223;28;20023;-73
2022/07/23 10:02:08;;;;;;;4.43;2.40;;;32.50;99.90;;;;;;5292182;28;20053;-72
2022/07/23 10:04:39;;;;;;;4.55;2.60;;;31.90;99.90;;;;;;5292084;28;20055;-71
2022/07/23 10:07:10;;;;;;;5.65;2.20;;;31.90;94.10;;;;;;5292075;28;20390;-73
2022/07/23 10:09:43;;;;;;;4.35;2.58;;;32.20;95.50;;;;;;5292021;28;20352;-72
2022/07/23 10:15:11;;;;;;;5.63;2.28;;;32.80;99.70;;;;;;5259866;28;20057;-72
2022/07/23 10:17:42;;;;;;;4.43;2.40;;;32.50;94.40;;;;;;5291926;28;20122;-72
2022/07/23 10:20:13;;;;;;;3.63;2.35;;;32.40;94.60;;;;;;5291808;28;20048;-70
2022/07/23 10:23:02;;;;;;;3.92;2.70;;;32.50;96.40;;;;;;5291685;28;20023;-70
2022/07/23 10:25:44;;;;;;;3.60;2.35;;;32.90;97.20;;;;;;5291830;28;20397;-73
2022/07/23 10:28:21;;;;;;;6.20;2.70;;;33.00;94.80;;;;;;5291582;28;20051;-72
2022/07/23 10:31:19;;;;;;;6.55;2.40;;;33.10;95.90;;;;;;5291729;28;20046;-73
2022/07/23 10:34:29;;;;;;;6.70;2.45;;;33.20;97.40;;;;;;5291561;28;20118;-69
2022/07/23 10:37:25;;;;;;;7.30;2.55;;;33.10;97.00;;;;;;5262248;28;20529;-72
2022/07/23 10:40:12;;;;;;;7.30;2.35;;;32.50;90.00;;;;;;5274137;28;20035;-73
2022/07/23 10:42:44;;;;;;;5.82;2.20;;;33.20;91.70;;;;;;5291270;28;20020;-73
2022/07/23 10:45:29;;;;;;;6.47;2.50;;;32.90;89.20;;;;;;5291387;28;20024;-72
2022/07/23 10:48:16;;;;;;;8.70;2.60;;;32.90;87.90;;;;;;5291516;28;20355;-72
2022/07/23 10:51:13;;;;;;;5.10;2.17;;;33.20;90.30;;;;;;5290983;28;20038;-67
2022/07/23 10:53:57;;;;;;;8.05;2.10;;;33.60;87.40;;;;;;5291164;28;20070;-73
2022/07/23 10:56:50;;;;;;;4.85;2.45;;;33.40;87.50;;;;;;5291299;28;20434;-73
2022/07/23 10:59:22;;;;;;;3.80;2.15;;;33.00;79.60;;;;;;5272747;28;20540;-73
2022/07/23 11:01:53;;;;;;;6.78;2.15;;;32.60;82.90;;;;;;5291151;28;20027;-73
2022/07/23 11:04:51;;;;;;;4.28;2.15;;;32.90;88.30;;;;;;5272740;28;20046;-73
2022/07/23 11:07:21;;;;;;;9.25;2.40;;;33.40;83.30;;;;;;5291061;28;20366;-73
2022/07/23 11:09:53;;;;;;;4.93;2.35;;;33.00;80.50;;;;;;5290874;28;20102;-73
2022/07/23 11:12:24;;;;;;;5.57;2.60;;;33.10;85.30;;;;;;5272734;28;20497;-72
2022/07/23 11:15:14;;;;;;;9.85;2.22;;;33.20;80.50;;;;;;5291155;28;20027;-71
2022/07/23 11:17:51;;;;;;;9.98;2.50;;;33.00;79.40;;;;;;5291184;28;20039;-72
2022/07/23 11:20:23;;;;;;;4.78;2.20;;;33.40;79.80;;;;;;5290978;28;20034;-73
2022/07/23 11:22:59;;;;;;;5.07;2.30;;;34.10;83.40;;;;;;5290935;28;20107;-73
2022/07/23 11:25:33;;;;;;;5.50;2.30;;;33.50;84.20;;;;;;5289841;28;20031;-73
2022/07/23 11:28:27;;;;;;;4.70;1.70;;;33.50;85.70;;;;;;5290642;28;20027;-73
2022/07/23 11:30:59;;;;;;;2.92;1.67;;;33.70;77.70;;;;;;5290594;28;20020;-72
2022/07/23 11:33:30;;;;;;;8.65;1.85;;;33.80;77.40;;;;;;5290350;28;20027;-74
2022/07/23 11:36:03;;;;;;;5.90;2.05;;;34.20;76.60;;;;;;5290573;28;20099;-72
2022/07/23 11:38:37;;;;;;;6.03;2.00;;;34.00;80.70;;;;;;5290339;28;20023;-73
2022/07/23 11:41:10;;;;;;;4.30;2.00;;;34.50;83.20;;;;;;5290307;28;20348;-72
2022/07/23 11:43:40;;;;;;;17.05;2.45;;;34.10;85.10;;;;;;5290139;28;20398;-72
2022/07/23 11:46:11;;;;;;;9.38;1.90;;;33.90;78.30;;;;;;5290161;28;20024;-70
2022/07/23 11:48:42;;;;;;;6.10;1.50;;;34.00;81.90;;;;;;5290126;28;20069;-67
2022/07/23 11:51:26;;;;;;;3.40;1.50;;;33.50;73.30;;;;;;5289738;28;20059;-73
2022/07/23 11:54:06;;;;;;;4.03;1.50;;;34.40;74.10;;;;;;5290069;28;20077;-72
2022/07/23 11:56:37;;;;;;;3.90;1.75;;;34.60;75.40;;;;;;5290074;28;20032;-67
2022/07/23 11:59:08;;;;;;;6.85;1.50;;;34.20;76.30;;;;;;5289907;28;20110;-72
2022/07/23 12:01:56;;;;;;;6.85;1.52;;;34.20;70.70;;;;;;5290058;28;20030;-73
2022/07/23 12:04:42;;;;;;;5.53;1.55;;;34.50;71.10;;;;;;5289860;28;20482;-67
2022/07/23 12:07:34;;;;;;;2.95;1.30;;;34.30;71.80;;;;;;5289743;28;20027;-71
2022/07/23 12:10:28;;;;;;;6.38;1.60;;;34.30;70.80;;;;;;5289949;28;20027;-73
2022/07/23 12:13:01;;;;;;;4.82;1.52;;;34.20;71.20;;;;;;5289416;28;20048;-73
2022/07/23 12:15:39;;;;;;;5.97;1.60;;;34.70;71.10;;;;;;5289701;28;20024;-73
2022/07/23 12:18:12;;;;;;;4.65;1.90;;;34.50;71.10;;;;;;5289735;28;20023;-68
2022/07/23 12:20:46;;;;;;;3.90;1.40;;;34.10;68.50;;;;;;5289523;28;20115;-73
2022/07/23 12:23:18;;;;;;;5.75;1.50;;;34.20;66.40;;;;;;5289352;28;20027;-68
2022/07/23 12:25:51;;;;;;;6.10;1.65;;;34.80;63.80;;;;;;5289639;28;20031;-72
2022/07/23 12:28:29;;;;;;;7.50;1.63;;;34.20;61.70;;;;;;5289590;28;20026;-72
2022/07/23 12:31:00;;;;;;;3.13;1.20;;;34.50;64.30;;;;;;5289459;28;20032;-70
2022/07/23 12:33:37;;;;;;;4.28;1.40;;;34.00;64.00;;;;;;5289332;28;20031;-72
2022/07/23 12:36:09;;;;;;;5.25;1.30;;;34.20;66.20;;;;;;5289334;28;20047;-70
2022/07/23 12:38:43;;;;;;;7.85;1.55;;;34.60;64.30;;;;;;5289035;28;20031;-72
2022/07/23 12:41:14;;;;;;;3.90;1.30;;;33.80;66.10;;;;;;5289310;28;20024;-69
2022/07/23 12:43:46;;;;;;;4.82;1.48;;;33.60;62.20;;;;;;5289326;28;20032;-72
2022/07/23 12:46:20;;;;;;;3.90;1.42;;;34.10;66.50;;;;;;5289465;28;20027;-73
2022/07/23 12:48:53;;;;;;;6.03;1.65;;;34.40;70.20;;;;;;5289208;28;20027;-72
2022/07/23 12:51:27;;;;;;;2.78;1.10;;;34.00;65.90;;;;;;5289038;28;20062;-71
2022/07/23 12:54:09;;;;;;;8.77;1.58;;;35.90;68.00;;;;;;5289169;28;20105;-73
2022/07/23 12:56:44;;;;;;;3.67;1.30;;;33.20;66.90;;;;;;5289093;28;20024;-72
2022/07/23 12:59:16;;;;;;;8.60;1.42;;;33.30;65.10;;;;;;5289026;28;20116;-71
2022/07/23 13:01:58;;;;;;;4.05;1.40;;;33.50;65.00;;;;;;5289072;28;20031;-72
2022/07/23 13:04:31;;;;;;;6.30;1.60;;;33.90;67.20;;;;;;5288946;28;20444;-69
2022/07/23 13:07:02;;;;;;;5.25;1.65;;;33.70;63.60;;;;;;5289011;28;20076;-73
2022/07/23 13:09:34;;;;;;;4.38;1.50;;;34.30;66.60;;;;;;5289172;28;20483;-72
2022/07/23 13:12:05;;;;;;;5.25;1.45;;;34.00;63.10;;;;;;5288777;28;20371;-73
2022/07/23 13:14:36;;;;;;;4.70;1.42;;;34.50;65.50;;;;;;5288931;28;20020;-73
2022/07/23 13:17:07;;;;;;;3.25;1.30;;;34.50;66.40;;;;;;5288880;28;20032;-73
2022/07/23 13:19:37;;;;;;;7.13;1.42;;;34.40;64.70;;;;;;5288847;28;20046;-72
2022/07/23 13:22:08;;;;;;;5.35;2.00;;;33.80;63.60;;;;;;5288670;28;20485;-73
2022/07/23 13:24:39;;;;;;;5.10;1.70;;;34.00;72.40;;;;;;5288802;28;20117;-73
2022/07/23 13:27:10;;;;;;;8.88;1.70;;;33.50;70.00;;;;;;5288748;28;20112;-68
2022/07/23 13:29:41;;;;;;;8.52;1.67;;;33.70;68.30;;;;;;5288772;28;20090;-73
2022/07/23 13:32:13;;;;;;;17.15;2.30;;;34.30;67.70;;;;;;5288626;28;20475;-72
2022/07/23 13:34:44;;;;;;;7.65;1.65;;;34.30;66.10;;;;;;5288742;28;20530;-73
2022/07/23 13:37:14;;;;;;;3.22;1.23;;;34.30;66.40;;;;;;5288810;28;20157;-72
2022/07/23 13:39:45;;;;;;;9.20;1.73;;;33.90;65.30;;;;;;5288740;28;20032;-71
2022/07/23 13:42:16;;;;;;;3.83;1.73;;;34.10;69.90;;;;;;5288438;28;20026;-72
2022/07/23 13:44:47;;;;;;;8.73;1.83;;;33.60;69.90;;;;;;5288766;28;20022;-73
2022/07/23 13:47:18;;;;;;;5.43;1.77;;;33.70;73.50;;;;;;5288742;28;20094;-73
2022/07/23 13:49:49;;;;;;;4.40;1.70;;;34.40;72.40;;;;;;5291084;28;20024;-72
2022/07/23 13:52:19;;;;;;;7.88;1.90;;;34.20;74.20;;;;;;5292099;28;20039;-68